Saint Helena Island, South Carolina
Current Conditions -  °F | °C
As of 4:15 AM on Wednesday 22 Oct 2014 (Local Time) from KARW Reporting Station
Clear Clear  
Wind Chill: 57°   Ceiling: Unl
Heat Index: 57°   Visibility: 7mi
Dew Point: 52°   Wind: 7mph
Humidity: 82%   Direction: 350°N
Pressure: 29.94"   Gusts: NA
Location:  32.32°N, 80.48°W
Report Text: KARW 220815Z AUTO 35006KT 7SM CLR 14/11 A2994 RMK AO2
Loading
Personal Weather Stations






























Interactive Weather Map
Tropical Storm Tracking
New forecast layout! Learn more

10-Day Weather Forecast

Advertisements
Track Severe Weather on mobile